createdAt,value
2019-02-08T00:00:18.764Z,2.488708
2019-02-08T00:01:28.398Z,2.458496
2019-02-08T00:02:37.936Z,2.458496
2019-02-08T00:03:47.508Z,2.438354
2019-02-08T00:04:57.027Z,2.428284
2019-02-08T00:06:06.545Z,2.428284
2019-02-08T00:07:16.106Z,2.428284
2019-02-08T00:08:25.681Z,2.37793
2019-02-08T00:09:35.241Z,2.388
2019-02-08T00:10:44.802Z,2.388
2019-02-08T00:11:54.404Z,2.37793
2019-02-08T00:13:03.951Z,2.37793
2019-02-08T00:14:13.513Z,2.357788
2019-02-08T00:15:23.062Z,2.37793
2019-02-08T00:16:32.651Z,2.357788
2019-02-08T00:17:42.174Z,2.357788
2019-02-08T00:18:51.765Z,2.37793
2019-02-08T00:20:01.519Z,2.37793
2019-02-08T00:21:10.883Z,2.428284
2019-02-08T00:22:20.425Z,2.438354
2019-02-08T00:23:29.997Z,2.438354
2019-02-08T00:24:39.610Z,2.428284
2019-02-08T00:25:49.180Z,2.428284
2019-02-08T00:26:58.737Z,2.388
2019-02-08T00:28:08.352Z,2.418213
2019-02-08T00:29:18.939Z,2.388
2019-02-08T00:30:28.507Z,2.388
2019-02-08T00:31:38.118Z,2.37793
2019-02-08T00:32:47.680Z,2.357788
2019-02-08T00:33:57.240Z,2.347717
2019-02-08T00:35:06.833Z,2.347717
2019-02-08T00:36:16.357Z,2.347717
2019-02-08T00:37:25.902Z,2.347717
2019-02-08T00:38:35.482Z,2.327576
2019-02-08T00:39:45.125Z,2.317505
2019-02-08T00:40:54.681Z,2.317505
2019-02-08T00:42:04.208Z,2.307434
2019-02-08T00:43:14.805Z,2.277222
2019-02-08T00:44:24.340Z,2.287292
2019-02-08T00:45:33.943Z,2.25708
2019-02-08T00:46:43.459Z,2.25708
2019-02-08T00:47:52.997Z,2.236938
2019-02-08T00:49:02.607Z,2.247009
2019-02-08T00:50:12.154Z,2.247009
2019-02-08T00:51:21.680Z,2.25708
2019-02-08T00:52:31.213Z,2.236938
2019-02-08T00:53:40.742Z,2.196655
2019-02-08T00:54:50.297Z,2.146301
2019-02-08T00:55:59.823Z,2.13623
2019-02-08T00:57:09.377Z,2.166443
2019-02-08T00:58:18.935Z,2.176514
2019-02-08T00:59:28.473Z,2.247009
2019-02-08T01:00:38.054Z,2.287292
2019-02-08T01:01:47.583Z,2.277222
2019-02-08T01:02:57.154Z,2.287292
2019-02-08T01:04:06.664Z,2.277222
2019-02-08T01:05:16.205Z,2.236938
2019-02-08T01:06:25.803Z,2.196655
2019-02-08T01:07:35.368Z,2.166443
2019-02-08T01:08:44.945Z,2.166443
2019-02-08T01:09:54.486Z,2.176514
2019-02-08T01:11:04.011Z,2.196655
2019-02-08T01:12:13.587Z,2.166443
2019-02-08T01:13:23.095Z,2.196655
2019-02-08T01:14:32.631Z,2.196655
2019-02-08T01:15:42.195Z,2.176514
2019-02-08T01:16:51.743Z,2.216797
2019-02-08T01:18:01.312Z,2.236938
2019-02-08T01:19:10.820Z,2.287292
2019-02-08T01:20:20.380Z,2.287292
2019-02-08T01:21:29.958Z,2.287292
2019-02-08T01:22:39.465Z,2.25708
2019-02-08T01:23:49.001Z,2.25708
2019-02-08T01:24:58.535Z,2.25708
2019-02-08T01:26:08.089Z,2.287292
2019-02-08T01:27:17.617Z,2.287292
2019-02-08T01:28:27.167Z,2.247009
2019-02-08T01:29:36.695Z,2.277222
2019-02-08T01:30:46.253Z,2.307434
2019-02-08T01:31:55.823Z,2.317505
2019-02-08T01:33:05.351Z,2.287292
2019-02-08T01:34:14.905Z,2.287292
2019-02-08T01:35:24.496Z,2.25708
2019-02-08T01:36:34.049Z,2.236938
2019-02-08T01:37:43.569Z,2.216797
2019-02-08T01:38:53.105Z,2.196655
2019-02-08T01:40:02.678Z,2.196655
2019-02-08T01:41:12.206Z,2.196655
2019-02-08T01:42:21.762Z,2.216797
2019-02-08T01:43:31.346Z,2.216797
2019-02-08T01:44:40.882Z,2.236938
2019-02-08T01:45:50.422Z,2.247009
2019-02-08T01:46:59.975Z,2.277222
2019-02-08T01:48:09.513Z,2.25708
2019-02-08T01:49:19.138Z,2.277222
2019-02-08T01:50:28.711Z,2.277222
2019-02-08T01:51:39.225Z,2.307434
2019-02-08T01:52:48.753Z,2.287292
2019-02-08T01:53:58.289Z,2.277222
2019-02-08T01:55:07.827Z,2.277222
2019-02-08T01:56:17.396Z,2.277222
2019-02-08T01:57:26.906Z,2.247009
2019-02-08T01:58:36.457Z,2.25708
2019-02-08T01:59:46.001Z,2.247009
2019-02-08T02:00:55.552Z,2.25708
2019-02-08T02:02:05.082Z,2.247009
2019-02-08T02:03:14.599Z,2.236938
2019-02-08T02:04:24.122Z,2.216797
2019-02-08T02:05:33.654Z,2.236938
2019-02-08T02:06:43.165Z,2.176514
2019-02-08T02:07:52.678Z,2.176514
2019-02-08T02:09:02.223Z,2.146301
2019-02-08T02:10:11.747Z,2.106018
2019-02-08T02:11:21.307Z,2.095947
2019-02-08T02:12:30.817Z,2.095947
2019-02-08T02:13:40.333Z,2.065735
2019-02-08T02:14:49.852Z,2.065735
2019-02-08T02:15:59.377Z,2.055664
2019-02-08T02:17:08.900Z,2.035522
2019-02-08T02:18:18.428Z,2.015381
2019-02-08T02:19:27.969Z,1.995239
2019-02-08T02:20:37.508Z,1.995239
2019-02-08T02:21:47.028Z,1.985168
2019-02-08T02:22:56.568Z,1.985168
2019-02-08T02:24:06.081Z,2.035522
2019-02-08T02:25:15.600Z,2.055664
2019-02-08T02:26:25.149Z,2.015381
2019-02-08T02:27:34.705Z,2.035522
2019-02-08T02:28:44.233Z,2.015381
2019-02-08T02:29:53.769Z,1.985168
2019-02-08T02:31:03.315Z,1.965027
2019-02-08T02:32:12.838Z,1.954956
2019-02-08T02:33:22.367Z,1.944885
2019-02-08T02:34:31.881Z,1.914673
2019-02-08T02:35:41.406Z,1.87439
2019-02-08T02:36:50.924Z,1.87439
2019-02-08T02:38:00.462Z,1.854248
2019-02-08T02:39:10.006Z,1.803894
2019-02-08T02:40:19.533Z,1.813965
2019-02-08T02:41:29.063Z,1.773682
2019-02-08T02:42:38.595Z,1.763611
2019-02-08T02:43:48.119Z,1.763611
2019-02-08T02:44:57.667Z,1.743469
2019-02-08T02:46:07.189Z,1.743469
2019-02-08T02:47:16.711Z,1.743469
2019-02-08T02:48:27.228Z,1.713257
2019-02-08T02:49:36.747Z,1.713257
2019-02-08T02:50:46.312Z,1.703186
2019-02-08T02:51:55.808Z,1.703186
2019-02-08T02:53:05.380Z,1.683044
2019-02-08T02:54:14.872Z,1.672974
2019-02-08T02:55:24.417Z,1.63269
2019-02-08T02:56:33.951Z,1.63269
2019-02-08T02:57:43.497Z,1.602478
2019-02-08T02:58:53.031Z,1.592407
2019-02-08T03:00:02.549Z,1.582336
2019-02-08T03:01:12.095Z,1.582336
2019-02-08T03:02:21.642Z,1.582336
2019-02-08T03:03:31.166Z,1.582336
2019-02-08T03:04:40.693Z,1.552124
2019-02-08T03:05:50.294Z,1.562195
2019-02-08T03:06:59.849Z,1.562195
2019-02-08T03:08:09.387Z,1.582336
2019-02-08T03:09:18.904Z,1.552124
2019-02-08T03:10:28.417Z,1.552124
2019-02-08T03:11:38.030Z,1.531982
2019-02-08T03:12:47.564Z,1.562195
2019-02-08T03:13:57.106Z,1.531982
2019-02-08T03:15:06.656Z,1.531982
2019-02-08T03:16:16.164Z,1.521912
2019-02-08T03:17:25.683Z,1.552124
2019-02-08T03:18:35.213Z,1.582336
2019-02-08T03:19:44.750Z,1.62262
2019-02-08T03:20:54.287Z,1.683044
2019-02-08T03:22:03.806Z,1.733398
2019-02-08T03:23:13.346Z,1.773682
2019-02-08T03:24:22.887Z,1.783752
2019-02-08T03:25:32.394Z,1.773682
2019-02-08T03:26:41.928Z,1.813965
2019-02-08T03:27:51.466Z,1.854248
2019-02-08T03:29:00.998Z,1.88446
2019-02-08T03:30:10.544Z,1.914673
2019-02-08T03:31:20.089Z,1.924744
2019-02-08T03:32:29.599Z,1.924744
2019-02-08T03:33:39.136Z,1.924744
2019-02-08T03:34:48.652Z,1.985168
2019-02-08T03:35:58.186Z,2.015381
2019-02-08T03:37:07.717Z,2.015381
2019-02-08T03:38:17.259Z,2.055664
2019-02-08T03:39:26.801Z,2.035522
2019-02-08T03:40:36.337Z,2.055664
2019-02-08T03:41:45.922Z,2.055664
2019-02-08T03:42:55.460Z,2.035522
2019-02-08T03:44:04.994Z,2.035522
2019-02-08T03:45:14.526Z,2.035522
2019-02-08T03:46:24.069Z,2.035522
2019-02-08T03:47:33.609Z,2.035522
2019-02-08T03:48:43.153Z,2.065735
2019-02-08T03:49:52.670Z,2.055664
2019-02-08T03:51:02.227Z,2.055664
2019-02-08T03:52:11.756Z,2.035522
2019-02-08T03:53:21.302Z,2.015381
2019-02-08T03:54:30.808Z,2.055664
2019-02-08T03:55:40.352Z,2.035522
2019-02-08T03:56:49.916Z,2.035522
2019-02-08T03:57:59.477Z,2.055664
2019-02-08T03:59:08.989Z,2.055664
2019-02-08T04:00:18.572Z,2.035522
2019-02-08T04:01:28.114Z,2.055664
2019-02-08T04:02:37.629Z,2.055664
2019-02-08T04:03:47.174Z,2.055664
2019-02-08T04:04:56.726Z,2.055664
2019-02-08T04:06:06.287Z,2.015381
2019-02-08T04:07:15.813Z,2.035522
2019-02-08T04:08:25.337Z,2.015381
2019-02-08T04:09:34.871Z,1.995239
2019-02-08T04:10:44.439Z,1.985168
2019-02-08T04:11:53.968Z,1.954956
2019-02-08T04:13:03.505Z,1.965027
2019-02-08T04:14:13.046Z,1.985168
2019-02-08T04:15:22.600Z,1.995239
2019-02-08T04:16:32.137Z,1.995239
2019-02-08T04:17:41.679Z,2.015381
2019-02-08T04:18:51.237Z,2.035522
2019-02-08T04:20:00.783Z,1.985168
2019-02-08T04:21:10.296Z,1.954956
2019-02-08T04:22:19.862Z,1.944885
2019-02-08T04:23:30.340Z,1.914673
2019-02-08T04:24:39.869Z,1.924744
2019-02-08T04:25:49.421Z,1.914673
2019-02-08T04:26:58.986Z,1.894531
2019-02-08T04:28:08.556Z,1.87439
2019-02-08T04:29:18.062Z,1.87439
2019-02-08T04:30:27.634Z,1.87439
2019-02-08T04:31:37.201Z,1.88446
2019-02-08T04:32:46.845Z,1.854248
2019-02-08T04:33:56.386Z,1.87439
2019-02-08T04:35:05.912Z,1.87439
2019-02-08T04:36:15.437Z,1.88446
2019-02-08T04:37:25.006Z,1.87439
2019-02-08T04:38:34.537Z,1.87439
2019-02-08T04:39:44.071Z,1.87439
2019-02-08T04:40:53.682Z,1.854248
2019-02-08T04:42:04.296Z,1.87439
2019-02-08T04:43:13.919Z,1.87439
2019-02-08T04:44:23.457Z,1.854248
2019-02-08T04:45:32.983Z,1.844177
2019-02-08T04:46:42.521Z,1.813965
2019-02-08T04:47:52.057Z,1.783752
2019-02-08T04:49:01.592Z,1.783752
2019-02-08T04:50:11.150Z,1.773682
2019-02-08T04:51:20.672Z,1.773682
2019-02-08T04:52:30.286Z,1.743469
2019-02-08T04:53:39.839Z,1.713257
2019-02-08T04:54:49.374Z,1.683044
2019-02-08T04:55:58.893Z,1.662903
2019-02-08T04:57:08.494Z,1.602478
2019-02-08T04:58:18.024Z,1.562195
2019-02-08T04:59:27.581Z,1.552124
2019-02-08T05:00:37.095Z,1.50177
2019-02-08T05:01:46.656Z,1.491699
2019-02-08T05:02:56.188Z,1.441345
2019-02-08T05:04:05.707Z,1.421204
2019-02-08T05:05:15.244Z,1.38092
2019-02-08T05:06:24.811Z,1.38092
2019-02-08T05:07:34.366Z,1.350708
2019-02-08T05:08:43.893Z,1.320496
2019-02-08T05:09:53.456Z,1.310425
2019-02-08T05:11:03.003Z,1.300354
2019-02-08T05:12:12.544Z,1.300354
2019-02-08T05:13:22.113Z,1.320496
2019-02-08T05:14:31.663Z,1.320496
2019-02-08T05:15:41.181Z,1.320496
2019-02-08T05:16:50.704Z,1.320496
2019-02-08T05:18:00.270Z,1.350708
2019-02-08T05:19:09.756Z,1.320496
2019-02-08T05:20:19.290Z,1.310425
2019-02-08T05:21:28.819Z,1.300354
2019-02-08T05:22:38.367Z,1.300354
2019-02-08T05:23:47.877Z,1.300354
2019-02-08T05:24:57.408Z,1.300354
2019-02-08T05:26:06.934Z,1.300354
2019-02-08T05:27:16.481Z,1.260071
2019-02-08T05:28:26.010Z,1.199646
2019-02-08T05:29:35.535Z,1.159363
2019-02-08T05:30:45.048Z,1.12915
2019-02-08T05:31:54.622Z,1.098938
2019-02-08T05:33:04.149Z,1.11908
2019-02-08T05:34:13.663Z,1.169434
2019-02-08T05:35:23.174Z,1.199646
2019-02-08T05:36:33.680Z,1.189575
2019-02-08T05:37:43.248Z,1.169434
2019-02-08T05:38:52.753Z,1.159363
2019-02-08T05:40:02.284Z,1.098938
2019-02-08T05:41:11.848Z,1.048584
2019-02-08T05:42:21.415Z,1.008301
2019-02-08T05:43:30.957Z,0.957947
2019-02-08T05:44:40.470Z,0.947876
2019-02-08T05:45:50.006Z,0.917664
2019-02-08T05:46:59.534Z,0.86731
2019-02-08T05:48:09.080Z,0.857239
2019-02-08T05:49:18.623Z,0.796814
2019-02-08T05:50:28.149Z,0.766602
2019-02-08T05:51:37.674Z,0.726318
2019-02-08T05:52:47.269Z,0.696106
2019-02-08T05:53:56.795Z,0.675964
2019-02-08T05:55:06.340Z,0.645752
2019-02-08T05:56:15.878Z,0.645752
2019-02-08T05:57:25.423Z,0.61554
2019-02-08T05:58:34.947Z,0.61554
2019-02-08T05:59:44.543Z,0.585327
2019-02-08T06:00:54.072Z,0.575256
2019-02-08T06:02:03.661Z,0.555115
2019-02-08T06:03:13.246Z,0.545044
2019-02-08T06:04:22.796Z,0.545044
2019-02-08T06:05:32.335Z,0.49469
2019-02-08T06:06:41.908Z,0.474548
2019-02-08T06:07:51.469Z,0.464478
2019-02-08T06:09:01.021Z,0.434265
2019-02-08T06:10:10.555Z,0.404053
2019-02-08T06:11:20.106Z,0.343628
2019-02-08T06:12:29.648Z,0.36377
2019-02-08T06:13:39.173Z,0.323486
2019-02-08T06:14:48.705Z,0.313416
2019-02-08T06:15:58.261Z,0.313416
2019-02-08T06:17:07.859Z,0.313416
2019-02-08T06:18:17.411Z,0.323486
2019-02-08T06:19:26.945Z,0.313416
2019-02-08T06:20:36.514Z,0.313416
2019-02-08T06:21:46.081Z,0.313416
2019-02-08T06:22:55.629Z,0.313416
2019-02-08T06:24:05.228Z,0.343628
2019-02-08T06:25:14.820Z,0.323486
2019-02-08T06:26:24.333Z,0.343628
2019-02-08T06:27:33.856Z,0.323486
2019-02-08T06:28:43.405Z,0.293274
2019-02-08T06:29:52.980Z,0.293274
2019-02-08T06:31:02.566Z,0.293274
2019-02-08T06:32:12.090Z,0.313416
2019-02-08T06:33:21.648Z,0.323486
2019-02-08T06:34:31.192Z,0.343628
2019-02-08T06:35:41.728Z,0.323486
2019-02-08T06:36:51.264Z,0.323486
2019-02-08T06:38:00.874Z,0.323486
2019-02-08T06:39:10.429Z,0.313416
2019-02-08T06:40:20.008Z,0.283203
2019-02-08T06:41:29.545Z,0.313416
2019-02-08T06:42:39.137Z,0.293274
2019-02-08T06:43:48.680Z,0.293274
2019-02-08T06:44:58.252Z,0.283203
2019-02-08T06:46:07.832Z,0.343628
2019-02-08T06:47:17.363Z,0.36377
2019-02-08T06:48:26.901Z,0.37384
2019-02-08T06:49:36.424Z,0.414124
2019-02-08T06:50:45.990Z,0.393982
2019-02-08T06:51:55.530Z,0.393982
2019-02-08T06:53:05.041Z,0.404053
2019-02-08T06:54:14.596Z,0.404053
2019-02-08T06:55:24.178Z,0.434265
2019-02-08T06:56:33.770Z,0.474548
2019-02-08T06:57:43.257Z,0.504761
2019-02-08T06:58:52.793Z,0.555115
2019-02-08T07:00:02.325Z,0.61554
2019-02-08T07:01:11.840Z,0.655823
2019-02-08T07:02:21.389Z,0.696106
2019-02-08T07:03:30.919Z,0.766602
2019-02-08T07:04:40.444Z,0.796814
2019-02-08T07:05:50.004Z,0.837097
2019-02-08T07:06:59.546Z,0.87738
2019-02-08T07:08:09.110Z,0.917664
2019-02-08T07:09:18.613Z,0.957947
2019-02-08T07:10:28.116Z,1.038513
2019-02-08T07:11:37.695Z,1.098938
2019-02-08T07:12:47.258Z,1.11908
2019-02-08T07:13:56.794Z,1.159363
2019-02-08T07:15:06.333Z,1.199646
2019-02-08T07:16:15.861Z,1.239929
2019-02-08T07:17:25.378Z,1.300354
2019-02-08T07:18:34.920Z,1.320496
2019-02-08T07:19:44.437Z,1.320496
2019-02-08T07:20:53.985Z,1.350708
2019-02-08T07:22:03.518Z,1.401062
2019-02-08T07:23:13.047Z,1.441345
2019-02-08T07:24:22.557Z,1.481628
2019-02-08T07:25:32.075Z,1.531982
2019-02-08T07:26:41.657Z,1.592407
2019-02-08T07:27:51.178Z,1.683044
2019-02-08T07:29:00.700Z,1.803894
2019-02-08T07:30:10.221Z,1.914673
2019-02-08T07:31:19.787Z,1.965027
2019-02-08T07:32:29.628Z,2.075806
2019-02-08T07:33:39.135Z,2.166443
2019-02-08T07:34:48.665Z,2.287292
2019-02-08T07:35:58.189Z,2.418213
2019-02-08T07:37:07.744Z,2.468567
2019-02-08T07:38:17.254Z,2.559204
2019-02-08T07:39:26.755Z,2.649841
2019-02-08T07:40:36.291Z,2.710266
2019-02-08T07:41:45.839Z,2.750549
2019-02-08T07:42:55.349Z,2.800903
2019-02-08T07:44:04.881Z,2.800903
2019-02-08T07:45:14.405Z,2.831116
2019-02-08T07:46:23.957Z,2.871399
2019-02-08T07:47:33.461Z,2.901611
2019-02-08T07:48:43.001Z,3.01239
2019-02-08T07:49:52.529Z,3.13324
2019-02-08T07:51:02.035Z,3.26416
2019-02-08T07:52:11.565Z,3.364868
2019-02-08T07:53:21.091Z,3.445435
2019-02-08T07:54:30.611Z,3.495789
2019-02-08T07:55:40.156Z,3.556213
2019-02-08T07:56:49.696Z,3.616638
2019-02-08T07:57:59.227Z,3.687134
2019-02-08T07:59:08.742Z,3.737488
2019-02-08T08:00:18.265Z,3.838196
2019-02-08T08:01:27.789Z,3.908691
2019-02-08T08:02:37.334Z,3.938904
2019-02-08T08:03:46.849Z,3.878479
2019-02-08T08:04:57.344Z,3.918762
2019-02-08T08:06:06.881Z,4.009399
2019-02-08T08:07:16.432Z,4.100037
2019-02-08T08:08:25.954Z,4.130249
2019-02-08T08:09:35.483Z,4.190674
2019-02-08T08:10:45.005Z,4.261169
2019-02-08T08:11:54.518Z,4.341736
2019-02-08T08:13:04.046Z,4.311523
2019-02-08T08:14:13.572Z,4.382019
2019-02-08T08:15:23.091Z,4.442444
2019-02-08T08:16:32.639Z,4.553223
2019-02-08T08:17:42.200Z,4.664001
2019-02-08T08:18:51.731Z,4.744568
2019-02-08T08:20:01.249Z,4.815063
2019-02-08T08:21:10.759Z,4.784851
2019-02-08T08:22:20.301Z,4.915771
2019-02-08T08:23:29.820Z,5.046692
2019-02-08T08:24:39.360Z,5.107117
2019-02-08T08:25:48.864Z,5.258179
2019-02-08T08:26:58.400Z,5.389099
2019-02-08T08:28:07.913Z,5.509949
2019-02-08T08:29:17.430Z,5.65094
2019-02-08T08:30:26.973Z,5.721436
2019-02-08T08:31:36.499Z,5.731506
2019-02-08T08:32:46.005Z,5.842285
2019-02-08T08:33:55.531Z,5.791931
2019-02-08T08:35:05.061Z,5.822144
2019-02-08T08:36:14.568Z,5.912781
2019-02-08T08:37:24.795Z,5.932922
2019-02-08T08:38:33.658Z,5.912781
2019-02-08T08:39:43.178Z,6.043701
2019-02-08T08:40:52.767Z,5.993347
2019-02-08T08:42:02.307Z,6.083984
2019-02-08T08:43:11.823Z,6.224976
2019-02-08T08:44:21.372Z,6.355896
2019-02-08T08:45:30.894Z,6.40625
2019-02-08T08:46:40.448Z,6.416321
2019-02-08T08:47:49.959Z,6.476746
2019-02-08T08:48:59.477Z,6.567383
2019-02-08T08:50:09.000Z,6.637878
2019-02-08T08:51:18.534Z,6.738586
2019-02-08T08:52:28.117Z,6.839294
2019-02-08T08:53:37.616Z,6.819153
2019-02-08T08:54:47.142Z,6.77887
2019-02-08T08:55:56.655Z,6.768799
2019-02-08T08:57:06.184Z,6.748657
2019-02-08T08:58:15.708Z,6.819153
2019-02-08T08:59:25.213Z,6.960144
2019-02-08T09:00:34.749Z,7.131348
2019-02-08T09:01:44.310Z,7.070923
2019-02-08T09:02:53.820Z,7.181702
2019-02-08T09:04:03.337Z,7.242126
2019-02-08T09:05:12.853Z,7.28241
2019-02-08T09:06:22.397Z,7.312622
2019-02-08T09:07:31.943Z,7.393188
2019-02-08T09:08:41.461Z,7.050781
2019-02-08T09:09:50.963Z,7.141418
2019-02-08T09:11:00.490Z,7.101135
2019-02-08T09:12:10.003Z,7.232056
2019-02-08T09:13:19.529Z,7.201843
2019-02-08T09:14:29.038Z,7.352905
2019-02-08T09:15:38.564Z,7.453613
2019-02-08T09:16:48.070Z,7.070923
2019-02-08T09:17:57.591Z,6.879578
2019-02-08T09:19:07.097Z,7.101135
2019-02-08T09:20:16.608Z,7.322693
2019-02-08T09:21:26.129Z,7.614746
2019-02-08T09:22:35.646Z,7.765808
2019-02-08T09:23:45.167Z,7.947083
2019-02-08T09:24:54.681Z,8.148499
2019-02-08T09:26:04.230Z,8.229065
2019-02-08T09:27:13.754Z,8.309631
2019-02-08T09:28:23.277Z,8.450623
2019-02-08T09:29:32.802Z,8.460693
2019-02-08T09:30:43.314Z,8.269348
2019-02-08T09:31:52.827Z,7.514038
2019-02-08T09:33:02.363Z,7.050781
2019-02-08T09:34:11.872Z,7.101135
2019-02-08T09:35:21.399Z,7.322693
2019-02-08T09:36:30.919Z,7.53418
2019-02-08T09:37:40.450Z,7.765808
2019-02-08T09:38:49.965Z,7.876587
2019-02-08T09:39:59.479Z,8.057861
2019-02-08T09:41:08.993Z,8.188782
2019-02-08T09:42:18.547Z,8.269348
2019-02-08T09:43:28.085Z,8.329773
2019-02-08T09:44:37.588Z,8.370056
2019-02-08T09:45:47.115Z,8.460693
2019-02-08T09:46:56.622Z,8.631897
2019-02-08T09:48:06.157Z,8.692322
2019-02-08T09:49:15.665Z,8.843384
2019-02-08T09:50:25.196Z,8.873596
2019-02-08T09:51:34.713Z,8.380127
2019-02-08T09:52:45.265Z,8.480835
2019-02-08T09:53:54.785Z,8.480835
2019-02-08T09:55:04.309Z,8.198853
2019-02-08T09:56:13.828Z,8.329773
2019-02-08T09:57:23.359Z,8.128357
2019-02-08T09:58:32.934Z,8.309631
2019-02-08T09:59:42.438Z,8.611755
2019-02-08T10:00:51.968Z,8.913879
2019-02-08T10:02:01.490Z,8.641968
2019-02-08T10:03:11.013Z,8.742676
2019-02-08T10:04:20.529Z,8.309631
2019-02-08T10:05:30.036Z,8.148499
2019-02-08T10:06:39.540Z,8.380127
2019-02-08T10:07:49.086Z,8.581543
2019-02-08T10:08:58.626Z,8.823242
2019-02-08T10:10:08.165Z,8.762817
2019-02-08T10:11:17.684Z,8.913879
2019-02-08T10:12:27.228Z,8.883667
2019-02-08T10:13:36.773Z,8.662109
2019-02-08T10:14:46.276Z,8.974304
2019-02-08T10:15:55.788Z,9.024658
2019-02-08T10:17:05.307Z,9.034729
2019-02-08T10:18:14.869Z,8.853455
2019-02-08T10:19:24.387Z,8.410339
2019-02-08T10:20:33.929Z,8.259277
2019-02-08T10:21:43.444Z,8.561401
2019-02-08T10:22:52.974Z,8.853455
2019-02-08T10:24:02.505Z,8.92395
2019-02-08T10:25:12.029Z,9.075012
2019-02-08T10:26:21.552Z,9.246216
2019-02-08T10:27:31.061Z,9.155579
2019-02-08T10:28:40.579Z,9.306641
2019-02-08T10:29:50.089Z,9.276428
2019-02-08T10:30:59.607Z,9.276428
2019-02-08T10:32:09.149Z,9.437561
2019-02-08T10:33:18.658Z,9.004517
2019-02-08T10:34:28.206Z,8.67218
2019-02-08T10:35:37.710Z,8.702393
2019-02-08T10:36:47.246Z,8.913879
2019-02-08T10:37:56.775Z,9.276428
2019-02-08T10:39:06.306Z,9.407349
2019-02-08T10:40:15.806Z,9.508057
2019-02-08T10:41:30.362Z,9.739685
2019-02-08T10:42:34.859Z,9.397278
2019-02-08T10:43:44.390Z,9.477844
2019-02-08T10:44:53.908Z,9.477844
2019-02-08T10:46:03.419Z,9.457703
2019-02-08T10:47:12.940Z,9.064941
2019-02-08T10:48:22.478Z,8.813171
2019-02-08T10:49:31.991Z,8.913879
2019-02-08T10:50:41.530Z,8.712463
2019-02-08T10:51:51.036Z,8.611755
2019-02-08T10:53:00.554Z,8.631897
2019-02-08T10:54:10.124Z,8.883667
2019-02-08T10:55:19.668Z,9.286499
2019-02-08T10:56:29.198Z,9.689331
2019-02-08T10:57:38.735Z,9.830322
2019-02-08T10:58:48.281Z,10.021667
2019-02-08T10:59:57.832Z,10.283508
2019-02-08T11:01:07.368Z,10.283508
2019-02-08T11:02:16.939Z,10.253296
2019-02-08T11:03:26.489Z,10.223083
2019-02-08T11:04:36.015Z,10.253296
2019-02-08T11:05:45.532Z,10.011597
2019-02-08T11:06:55.072Z,9.820251
2019-02-08T11:08:04.602Z,9.367065
2019-02-08T11:09:15.135Z,9.034729
2019-02-08T11:10:24.657Z,9.17572
2019-02-08T11:11:34.195Z,9.618835
2019-02-08T11:12:43.730Z,10.041809
2019-02-08T11:13:53.242Z,10.152588
2019-02-08T11:15:02.771Z,10.384216
2019-02-08T11:16:12.310Z,10.595703
2019-02-08T11:17:21.823Z,10.736694
2019-02-08T11:18:31.378Z,10.887756
2019-02-08T11:19:40.938Z,10.776978
2019-02-08T11:20:50.442Z,10.666199
2019-02-08T11:21:59.980Z,10.55542
2019-02-08T11:23:09.534Z,10.605774
2019-02-08T11:24:19.110Z,10.867615
2019-02-08T11:25:28.636Z,10.988464
2019-02-08T11:26:38.154Z,10.988464
2019-02-08T11:27:47.663Z,11.048889
2019-02-08T11:28:57.212Z,10.917969
2019-02-08T11:30:06.764Z,10.787048
2019-02-08T11:31:16.275Z,10.253296
2019-02-08T11:32:28.681Z,10.092163
2019-02-08T11:33:36.304Z,10.122375
2019-02-08T11:34:45.861Z,9.971313
2019-02-08T11:35:55.361Z,9.457703
2019-02-08T11:37:04.894Z,9.538269
2019-02-08T11:38:15.399Z,9.80011
2019-02-08T11:39:24.951Z,10.05188
2019-02-08T11:40:34.476Z,10.102234
2019-02-08T11:41:44.002Z,10.30365
2019-02-08T11:42:53.513Z,10.464783
2019-02-08T11:44:03.048Z,10.444641
2019-02-08T11:45:12.557Z,10.404358
2019-02-08T11:46:22.075Z,10.152588
2019-02-08T11:47:31.580Z,9.971313
2019-02-08T11:48:41.115Z,10.162659
2019-02-08T11:49:50.654Z,9.719543
2019-02-08T11:51:00.171Z,9.719543
2019-02-08T11:52:09.686Z,10.05188
2019-02-08T11:53:19.207Z,10.343933
2019-02-08T11:54:28.753Z,10.484924
2019-02-08T11:55:38.297Z,10.605774
2019-02-08T11:56:47.831Z,10.736694
2019-02-08T11:57:57.339Z,11.119385
2019-02-08T11:59:06.887Z,11.320801
2019-02-08T12:00:16.423Z,11.512146
2019-02-08T12:01:25.951Z,11.411438
2019-02-08T12:02:40.328Z,11.300659
2019-02-08T12:03:45.000Z,11.320801
2019-02-08T12:04:54.538Z,11.330872
2019-02-08T12:06:04.058Z,11.351013
2019-02-08T12:07:13.582Z,11.542358
2019-02-08T12:08:23.164Z,11.512146
2019-02-08T12:09:32.682Z,11.43158
2019-02-08T12:10:42.206Z,11.663208
2019-02-08T12:11:51.718Z,11.733704
2019-02-08T12:13:01.241Z,11.773987
2019-02-08T12:14:10.784Z,11.94519
2019-02-08T12:15:20.287Z,11.834412
2019-02-08T12:16:29.830Z,11.260376
2019-02-08T12:17:39.357Z,11.139526
2019-02-08T12:18:48.893Z,11.330872
2019-02-08T12:19:59.429Z,11.723633
2019-02-08T12:21:08.929Z,11.914978
2019-02-08T12:22:18.446Z,12.388306
2019-02-08T12:23:27.989Z,12.609863
2019-02-08T12:24:37.559Z,12.851562
2019-02-08T12:25:47.058Z,13.123474
2019-02-08T12:26:56.579Z,13.415527
2019-02-08T12:28:06.095Z,13.667297
2019-02-08T12:29:15.634Z,13.385315
2019-02-08T12:30:25.144Z,13.526306
2019-02-08T12:31:34.653Z,13.788147
2019-02-08T12:32:45.157Z,13.94928
2019-02-08T12:33:54.685Z,13.919067
2019-02-08T12:35:04.204Z,13.868713
2019-02-08T12:36:13.725Z,13.717651
2019-02-08T12:37:23.272Z,13.747864
2019-02-08T12:38:32.818Z,13.707581
2019-02-08T12:39:42.389Z,13.858643
2019-02-08T12:40:51.910Z,14.261475
2019-02-08T12:42:01.417Z,14.503174
2019-02-08T12:43:10.968Z,14.0802
2019-02-08T12:44:20.541Z,14.251404
2019-02-08T12:45:30.071Z,14.442749
2019-02-08T12:46:39.590Z,14.513245
2019-02-08T12:47:49.173Z,14.301758
2019-02-08T12:48:58.651Z,14.140625
2019-02-08T12:50:08.182Z,14.442749
2019-02-08T12:51:17.692Z,14.372253
2019-02-08T12:52:27.261Z,14.603882
2019-02-08T12:53:36.778Z,14.362183
2019-02-08T12:54:46.349Z,14.20105
2019-02-08T12:55:55.877Z,13.888855
2019-02-08T12:57:05.387Z,13.69751
2019-02-08T12:58:14.895Z,13.556519
2019-02-08T12:59:24.424Z,13.486023
2019-02-08T13:00:33.959Z,13.234253
2019-02-08T13:01:43.485Z,12.861633
2019-02-08T13:02:52.991Z,13.093262
2019-02-08T13:04:03.445Z,13.334961
2019-02-08T13:05:12.046Z,13.69751
2019-02-08T13:06:21.561Z,13.848572
2019-02-08T13:07:31.088Z,13.778076
2019-02-08T13:08:40.620Z,13.94928
2019-02-08T13:09:50.246Z,14.20105
2019-02-08T13:11:00.681Z,14.352112
2019-02-08T13:12:09.239Z,13.959351
2019-02-08T13:13:18.765Z,13.455811
2019-02-08T13:14:28.361Z,13.274536
2019-02-08T13:15:37.876Z,13.083191
2019-02-08T13:16:47.403Z,13.254395
2019-02-08T13:17:56.922Z,13.123474
2019-02-08T13:19:06.478Z,12.932129
2019-02-08T13:20:15.990Z,12.7005
2019-02-08T13:21:25.875Z,12.750854
2019-02-08T13:22:35.404Z,12.730713
2019-02-08T13:23:44.939Z,12.619934
2019-02-08T13:24:54.494Z,12.388306
2019-02-08T13:26:04.069Z,12.750854
2019-02-08T13:27:13.584Z,12.730713
2019-02-08T13:28:23.124Z,12.911987
2019-02-08T13:29:32.675Z,13.274536
2019-02-08T13:30:43.215Z,12.911987
2019-02-08T13:31:52.771Z,12.760925
2019-02-08T13:33:02.299Z,13.042908
2019-02-08T13:34:11.848Z,13.234253
2019-02-08T13:35:21.401Z,13.405457